sensor_id;sensor_type;location;lat;lon;timestamp;pressure;altitude;pressure_sealevel;temperature;humidity
50123;BME280;36021;48.670;6.184;2023-05-14T00:01:50;99044.63;;;15.67;100.00
50123;BME280;36021;48.670;6.184;2023-05-14T00:04:16;99045.94;;;15.60;100.00
50123;BME280;36021;48.670;6.184;2023-05-14T00:06:44;99044.47;;;15.63;100.00
50123;BME280;36021;48.670;6.184;2023-05-14T00:09:11;99043.47;;;15.59;100.00
50123;BME280;36021;48.670;6.184;2023-05-14T00:11:37;99042.16;;;15.56;100.00
50123;BME280;36021;48.670;6.184;2023-05-14T00:14:03;99048.53;;;15.48;100.00
50123;BME280;36021;48.670;6.184;2023-05-14T00:16:29;99042.47;;;15.55;100.00
50123;BME280;36021;48.670;6.184;2023-05-14T00:18:54;99046.09;;;15.55;100.00
50123;BME280;36021;48.670;6.184;2023-05-14T00:21:20;99046.25;;;15.50;100.00
50123;BME280;36021;48.670;6.184;2023-05-14T00:23:46;99047.53;;;15.44;100.00
50123;BME280;36021;48.670;6.184;2023-05-14T00:26:12;99048.53;;;15.48;100.00
50123;BME280;36021;48.670;6.184;2023-05-14T00:28:41;99047.69;;;15.31;100.00
50123;BME280;36021;48.670;6.184;2023-05-14T00:31:07;99043.91;;;15.18;100.00
50123;BME280;36021;48.670;6.184;2023-05-14T00:33:33;99043.44;;;15.25;100.00
50123;BME280;36021;48.670;6.184;2023-05-14T00:35:59;99044.91;;;15.31;100.00
50123;BME280;36021;48.670;6.184;2023-05-14T00:38:28;99041.44;;;15.25;100.00
50123;BME280;36021;48.670;6.184;2023-05-14T00:40:54;99027.25;;;15.18;100.00
50123;BME280;36021;48.670;6.184;2023-05-14T00:43:20;99029.66;;;15.02;100.00
50123;BME280;36021;48.670;6.184;2023-05-14T00:45:52;99036.19;;;14.98;100.00
50123;BME280;36021;48.670;6.184;2023-05-14T00:48:19;99039.28;;;14.88;100.00
50123;BME280;36021;48.670;6.184;2023-05-14T00:50:46;99032.66;;;14.67;100.00
50123;BME280;36021;48.670;6.184;2023-05-14T00:53:12;99040.34;;;14.70;100.00
50123;BME280;36021;48.670;6.184;2023-05-14T00:55:40;99033.66;;;14.71;100.00
50123;BME280;36021;48.670;6.184;2023-05-14T00:58:09;99043.13;;;14.70;100.00
50123;BME280;36021;48.670;6.184;2023-05-14T01:00:37;99048.34;;;14.63;100.00
50123;BME280;36021;48.670;6.184;2023-05-14T01:03:04;99040.63;;;14.59;100.00
50123;BME280;36021;48.670;6.184;2023-05-14T01:06:38;99046.34;;;14.54;100.00
50123;BME280;36021;48.670;6.184;2023-05-14T01:11:18;99045.34;;;14.50;100.00
50123;BME280;36021;48.670;6.184;2023-05-14T01:13:58;99042.09;;;14.48;100.00
50123;BME280;36021;48.670;6.184;2023-05-14T01:16:29;99038.19;;;14.58;100.00
50123;BME280;36021;48.670;6.184;2023-05-14T01:18:58;99033.97;;;14.60;100.00
50123;BME280;36021;48.670;6.184;2023-05-14T01:21:42;99034.78;;;14.61;100.00
50123;BME280;36021;48.670;6.184;2023-05-14T01:24:08;99037.56;;;14.61;100.00
50123;BME280;36021;48.670;6.184;2023-05-14T01:26:35;99033.00;;;14.65;100.00
50123;BME280;36021;48.670;6.184;2023-05-14T01:29:16;99034.84;;;14.78;100.00
50123;BME280;36021;48.670;6.184;2023-05-14T01:31:48;99026.53;;;14.87;100.00
50123;BME280;36021;48.670;6.184;2023-05-14T01:34:19;99022.13;;;14.86;100.00
50123;BME280;36021;48.670;6.184;2023-05-14T01:36:46;99029.19;;;14.92;100.00
50123;BME280;36021;48.670;6.184;2023-05-14T01:39:14;99030.97;;;14.96;100.00
50123;BME280;36021;48.670;6.184;2023-05-14T01:41:41;99029.00;;;14.97;100.00
50123;BME280;36021;48.670;6.184;2023-05-14T01:44:10;99033.72;;;14.88;100.00
50123;BME280;36021;48.670;6.184;2023-05-14T01:46:36;99029.78;;;14.89;100.00
50123;BME280;36021;48.670;6.184;2023-05-14T01:49:02;99034.31;;;14.68;100.00
50123;BME280;36021;48.670;6.184;2023-05-14T01:51:28;99032.53;;;14.72;100.00
50123;BME280;36021;48.670;6.184;2023-05-14T01:53:54;99035.97;;;14.69;100.00
50123;BME280;36021;48.670;6.184;2023-05-14T01:56:21;99027.59;;;14.60;100.00
50123;BME280;36021;48.670;6.184;2023-05-14T01:58:48;99030.59;;;14.72;100.00
50123;BME280;36021;48.670;6.184;2023-05-14T02:01:15;99028.81;;;14.85;100.00
50123;BME280;36021;48.670;6.184;2023-05-14T02:03:41;99031.44;;;14.81;100.00
50123;BME280;36021;48.670;6.184;2023-05-14T02:06:08;99035.03;;;14.82;100.00
50123;BME280;36021;48.670;6.184;2023-05-14T02:08:33;99037.63;;;14.87;100.00
50123;BME280;36021;48.670;6.184;2023-05-14T02:11:00;99029.47;;;14.82;100.00
50123;BME280;36021;48.670;6.184;2023-05-14T02:13:26;99027.66;;;14.86;100.00
50123;BME280;36021;48.670;6.184;2023-05-14T02:15:51;99028.13;;;14.71;100.00
50123;BME280;36021;48.670;6.184;2023-05-14T02:18:17;99025.19;;;14.76;100.00
50123;BME280;36021;48.670;6.184;2023-05-14T02:20:43;99024.41;;;14.84;100.00
50123;BME280;36021;48.670;6.184;2023-05-14T02:23:09;99032.53;;;14.72;100.00
50123;BME280;36021;48.670;6.184;2023-05-14T02:25:36;99027.84;;;14.81;100.00
50123;BME280;36021;48.670;6.184;2023-05-14T02:28:01;99030.25;;;14.82;100.00
50123;BME280;36021;48.670;6.184;2023-05-14T02:30:27;99029.78;;;14.89;100.00
50123;BME280;36021;48.670;6.184;2023-05-14T02:32:54;99024.41;;;14.84;100.00
50123;BME280;36021;48.670;6.184;2023-05-14T02:35:21;99031.91;;;14.75;100.00
50123;BME280;36021;48.670;6.184;2023-05-14T02:37:47;99030.88;;;14.62;100.00
50123;BME280;36021;48.670;6.184;2023-05-14T02:40:14;99028.88;;;14.54;100.00
50123;BME280;36021;48.670;6.184;2023-05-14T02:42:40;99028.34;;;14.43;100.00
50123;BME280;36021;48.670;6.184;2023-05-14T02:45:06;99035.34;;;14.41;100.00
50123;BME280;36021;48.670;6.184;2023-05-14T02:47:32;99033.41;;;14.41;100.00
50123;BME280;36021;48.670;6.184;2023-05-14T02:49:59;99031.50;;;14.28;100.00
50123;BME280;36021;48.670;6.184;2023-05-14T02:52:25;99027.63;;;14.29;100.00
50123;BME280;36021;48.670;6.184;2023-05-14T02:54:50;99027.50;;;14.34;100.00
50123;BME280;36021;48.670;6.184;2023-05-14T02:57:16;99020.19;;;14.47;100.00
50123;BME280;36021;48.670;6.184;2023-05-14T02:59:43;99019.38;;;14.46;100.00
50123;BME280;36021;48.670;6.184;2023-05-14T03:02:09;99019.44;;;14.55;100.00
50123;BME280;36021;48.670;6.184;2023-05-14T03:04:34;99020.25;;;14.55;100.00
50123;BME280;36021;48.670;6.184;2023-05-14T03:07:00;99013.34;;;14.44;100.00
50123;BME280;36021;48.670;6.184;2023-05-14T03:09:27;99018.13;;;14.30;100.00
50123;BME280;36021;48.670;6.184;2023-05-14T03:11:53;99022.72;;;14.26;100.00
50123;BME280;36021;48.670;6.184;2023-05-14T03:14:19;99021.16;;;14.12;100.00
50123;BME280;36021;48.670;6.184;2023-05-14T03:16:45;99015.56;;;14.03;100.00
50123;BME280;36021;48.670;6.184;2023-05-14T03:19:10;99019.78;;;14.00;100.00
50123;BME280;36021;48.670;6.184;2023-05-14T03:21:36;99022.25;;;14.02;100.00
50123;BME280;36021;48.670;6.184;2023-05-14T03:24:02;99025.50;;;14.04;100.00
50123;BME280;36021;48.670;6.184;2023-05-14T03:26:27;99018.00;;;14.04;100.00
50123;BME280;36021;48.670;6.184;2023-05-14T03:28:55;99017.44;;;14.16;100.00
50123;BME280;36021;48.670;6.184;2023-05-14T03:31:21;99023.50;;;14.27;100.00
50123;BME280;36021;48.670;6.184;2023-05-14T03:33:47;99022.06;;;14.29;100.00
50123;BME280;36021;48.670;6.184;2023-05-14T03:36:13;99008.69;;;14.31;100.00
50123;BME280;36021;48.670;6.184;2023-05-14T03:38:40;99015.28;;;14.35;100.00
50123;BME280;36021;48.670;6.184;2023-05-14T03:41:06;99017.09;;;14.18;100.00
50123;BME280;36021;48.670;6.184;2023-05-14T03:43:31;99013.69;;;14.21;100.00
50123;BME280;36021;48.670;6.184;2023-05-14T03:45:57;99012.53;;;14.13;100.00
50123;BME280;36021;48.670;6.184;2023-05-14T03:48:25;99016.63;;;14.16;100.00
50123;BME280;36021;48.670;6.184;2023-05-14T03:50:51;99018.16;;;13.99;100.00
50123;BME280;36021;48.670;6.184;2023-05-14T03:53:16;99018.44;;;13.89;100.00
50123;BME280;36021;48.670;6.184;2023-05-14T03:55:44;99019.88;;;13.87;100.00
50123;BME280;36021;48.670;6.184;2023-05-14T03:58:11;99019.88;;;13.87;100.00
50123;BME280;36021;48.670;6.184;2023-05-14T04:00:42;99023.88;;;13.81;100.00
50123;BME280;36021;48.670;6.184;2023-05-14T04:03:10;99027.59;;;13.68;100.00
50123;BME280;36021;48.670;6.184;2023-05-14T04:05:37;99026.38;;;13.60;100.00
50123;BME280;36021;48.670;6.184;2023-05-14T04:08:03;99026.63;;;13.50;100.00
50123;BME280;36021;48.670;6.184;2023-05-14T04:10:30;99023.28;;;13.39;100.00
50123;BME280;36021;48.670;6.184;2023-05-14T04:12:58;99028.41;;;13.32;100.00
50123;BME280;36021;48.670;6.184;2023-05-14T04:15:28;99027.78;;;13.35;100.00
50123;BME280;36021;48.670;6.184;2023-05-14T04:17:53;99029.19;;;13.46;100.00
50123;BME280;36021;48.670;6.184;2023-05-14T04:20:19;99020.63;;;13.34;100.00
50123;BME280;36021;48.670;6.184;2023-05-14T04:22:44;99023.44;;;13.07;100.00
50123;BME280;36021;48.670;6.184;2023-05-14T04:25:10;99032.47;;;12.99;100.00
50123;BME280;36021;48.670;6.184;2023-05-14T04:27:37;99035.06;;;12.95;100.00
50123;BME280;36021;48.670;6.184;2023-05-14T04:30:03;99028.91;;;12.98;100.00
50123;BME280;36021;48.670;6.184;2023-05-14T04:32:30;99032.59;;;12.94;100.00
50123;BME280;36021;48.670;6.184;2023-05-14T04:34:56;99035.56;;;12.84;100.00
50123;BME280;36021;48.670;6.184;2023-05-14T04:37:23;99042.22;;;12.83;100.00
50123;BME280;36021;48.670;6.184;2023-05-14T04:39:50;99037.44;;;12.75;100.00
50123;BME280;36021;48.670;6.184;2023-05-14T04:42:16;99025.06;;;12.72;100.00
50123;BME280;36021;48.670;6.184;2023-05-14T04:44:41;99034.47;;;12.71;100.00
50123;BME280;36021;48.670;6.184;2023-05-14T04:47:07;99032.50;;;12.85;100.00
50123;BME280;36021;48.670;6.184;2023-05-14T04:49:33;99024.72;;;12.74;100.00
50123;BME280;36021;48.670;6.184;2023-05-14T04:52:00;99032.31;;;12.82;100.00
50123;BME280;36021;48.670;6.184;2023-05-14T04:54:25;99027.38;;;12.92;100.00
50123;BME280;36021;48.670;6.184;2023-05-14T04:56:52;99033.28;;;12.99;100.00
50123;BME280;36021;48.670;6.184;2023-05-14T04:59:20;99034.72;;;12.97;100.00
50123;BME280;36021;48.670;6.184;2023-05-14T05:01:46;99041.69;;;13.08;100.00
50123;BME280;36021;48.670;6.184;2023-05-14T05:04:12;99040.97;;;13.02;100.00
50123;BME280;36021;48.670;6.184;2023-05-14T05:06:40;99041.09;;;13.11;100.00
50123;BME280;36021;48.670;6.184;2023-05-14T05:09:06;99043.72;;;13.16;100.00
50123;BME280;36021;48.670;6.184;2023-05-14T05:11:33;99041.91;;;13.12;100.00
50123;BME280;36021;48.670;6.184;2023-05-14T05:13:58;99039.03;;;13.03;100.00
50123;BME280;36021;48.670;6.184;2023-05-14T05:16:24;99043.88;;;13.11;100.00
50123;BME280;36021;48.670;6.184;2023-05-14T05:18:49;99034.94;;;13.14;100.00
50123;BME280;36021;48.670;6.184;2023-05-14T05:21:15;99039.44;;;13.10;100.00
50123;BME280;36021;48.670;6.184;2023-05-14T05:23:41;99036.78;;;13.05;100.00
50123;BME280;36021;48.670;6.184;2023-05-14T05:26:06;99049.47;;;13.06;100.00
50123;BME280;36021;48.670;6.184;2023-05-14T05:28:32;99045.31;;;12.95;100.00
50123;BME280;36021;48.670;6.184;2023-05-14T05:30:59;99050.28;;;13.06;100.00
50123;BME280;36021;48.670;6.184;2023-05-14T05:33:24;99043.88;;;13.11;100.00
50123;BME280;36021;48.670;6.184;2023-05-14T05:35:52;99044.97;;;13.10;100.00
50123;BME280;36021;48.670;6.184;2023-05-14T05:38:18;99046.91;;;13.23;100.00
50123;BME280;36021;48.670;6.184;2023-05-14T05:40:45;99043.59;;;13.35;100.00
50123;BME280;36021;48.670;6.184;2023-05-14T05:43:10;99046.94;;;13.45;100.00
50123;BME280;36021;48.670;6.184;2023-05-14T05:45:38;99044.06;;;13.50;100.00
50123;BME280;36021;48.670;6.184;2023-05-14T05:48:05;99045.56;;;13.56;100.00
50123;BME280;36021;48.670;6.184;2023-05-14T05:50:31;99046.81;;;13.73;100.00
50123;BME280;36021;48.670;6.184;2023-05-14T05:52:57;99050.28;;;13.78;100.00
50123;BME280;36021;48.670;6.184;2023-05-14T05:55:25;99046.44;;;13.88;100.00
50123;BME280;36021;48.670;6.184;2023-05-14T05:57:51;99049.59;;;13.95;100.00
50123;BME280;36021;48.670;6.184;2023-05-14T06:00:18;99052.88;;;13.97;100.00
50123;BME280;36021;48.670;6.184;2023-05-14T06:02:44;99054.19;;;13.99;100.00
50123;BME280;36021;48.670;6.184;2023-05-14T06:05:11;99051.28;;;14.04;100.00
50123;BME280;36021;48.670;6.184;2023-05-14T06:07:37;99059.66;;;14.13;100.00
50123;BME280;36021;48.670;6.184;2023-05-14T06:10:04;99056.88;;;14.13;100.00
50123;BME280;36021;48.670;6.184;2023-05-14T06:12:30;99063.13;;;14.27;100.00
50123;BME280;36021;48.670;6.184;2023-05-14T06:14:56;99055.09;;;14.39;100.00
50123;BME280;36021;48.670;6.184;2023-05-14T06:17:23;99058.09;;;14.51;100.00
50123;BME280;36021;48.670;6.184;2023-05-14T06:19:49;99059.53;;;14.49;100.00
50123;BME280;36021;48.670;6.184;2023-05-14T06:22:15;99057.13;;;14.56;100.00
50123;BME280;36021;48.670;6.184;2023-05-14T06:24:41;99056.63;;;14.54;100.00
50123;BME280;36021;48.670;6.184;2023-05-14T06:27:06;99051.44;;;14.70;100.00
50123;BME280;36021;48.670;6.184;2023-05-14T06:29:35;99044.13;;;14.74;100.00
50123;BME280;36021;48.670;6.184;2023-05-14T06:32:01;99056.22;;;14.78;100.00
50123;BME280;36021;48.670;6.184;2023-05-14T06:34:30;99055.94;;;14.88;100.00
50123;BME280;36021;48.670;6.184;2023-05-14T06:36:56;99052.69;;;15.03;100.00
50123;BME280;36021;48.670;6.184;2023-05-14T06:39:23;99050.75;;;15.12;100.00
50123;BME280;36021;48.670;6.184;2023-05-14T06:41:49;99048.66;;;15.26;100.00
50123;BME280;36021;48.670;6.184;2023-05-14T06:44:17;99051.75;;;15.33;100.00
50123;BME280;36021;48.670;6.184;2023-05-14T06:46:42;99044.31;;;15.51;100.00
50123;BME280;36021;48.670;6.184;2023-05-14T06:49:10;99039.88;;;15.58;100.00
50123;BME280;36021;48.670;6.184;2023-05-14T06:51:36;99047.56;;;15.61;100.00
50123;BME280;36021;48.670;6.184;2023-05-14T06:54:03;99041.00;;;15.75;100.00
50123;BME280;36021;48.670;6.184;2023-05-14T06:56:28;99041.66;;;15.72;100.00
50123;BME280;36021;48.670;6.184;2023-05-14T06:58:56;99045.09;;;15.69;100.00
50123;BME280;36021;48.670;6.184;2023-05-14T07:01:22;99036.75;;;15.69;100.00
50123;BME280;36021;48.670;6.184;2023-05-14T07:03:48;99048.88;;;15.73;100.00
50123;BME280;36021;48.670;6.184;2023-05-14T07:06:14;99047.88;;;15.69;100.00
50123;BME280;36021;48.670;6.184;2023-05-14T07:08:42;99049.19;;;15.62;100.00
50123;BME280;36021;48.670;6.184;2023-05-14T07:11:10;99042.31;;;15.69;100.00
50123;BME280;36021;48.670;6.184;2023-05-14T07:13:38;99044.28;;;15.77;100.00
50123;BME280;36021;48.670;6.184;2023-05-14T07:16:05;99045.56;;;15.71;100.00
50123;BME280;36021;48.670;6.184;2023-05-14T07:18:31;99036.63;;;15.74;100.00
50123;BME280;36021;48.670;6.184;2023-05-14T07:20:56;99038.72;;;15.77;100.00
50123;BME280;36021;48.670;6.184;2023-05-14T07:23:22;99033.66;;;15.79;100.00
50123;BME280;36021;48.670;6.184;2023-05-14T07:25:47;99029.06;;;15.83;100.00
50123;BME280;36021;48.670;6.184;2023-05-14T07:28:14;99027.78;;;15.80;100.00
50123;BME280;36021;48.670;6.184;2023-05-14T07:30:40;99029.22;;;15.95;100.00
50123;BME280;36021;48.670;6.184;2023-05-14T07:33:06;99021.00;;;16.07;100.00
50123;BME280;36021;48.670;6.184;2023-05-14T07:35:32;99029.81;;;16.26;100.00
50123;BME280;36021;48.670;6.184;2023-05-14T07:37:59;99021.56;;;16.38;100.00
50123;BME280;36021;48.670;6.184;2023-05-14T07:40:25;99016.47;;;16.40;100.00
50123;BME280;36021;48.670;6.184;2023-05-14T07:42:50;99017.41;;;16.53;100.00
50123;BME280;36021;48.670;6.184;2023-05-14T07:45:16;99017.31;;;16.41;100.00
50123;BME280;36021;48.670;6.184;2023-05-14T07:47:42;99012.66;;;16.53;100.00
50123;BME280;36021;48.670;6.184;2023-05-14T07:50:08;99014.63;;;16.53;100.00
50123;BME280;36021;48.670;6.184;2023-05-14T07:52:35;99015.44;;;16.62;100.00
50123;BME280;36021;48.670;6.184;2023-05-14T07:55:02;99001.66;;;16.65;100.00
50123;BME280;36021;48.670;6.184;2023-05-14T08:05:10;99004.63;;;16.90;100.00
50123;BME280;36021;48.670;6.184;2023-05-14T08:07:36;98999.22;;;16.93;100.00
50123;BME280;36021;48.670;6.184;2023-05-14T08:10:02;98997.31;;;17.06;100.00
50123;BME280;36021;48.670;6.184;2023-05-14T08:12:29;99002.16;;;16.97;100.00
50123;BME280;36021;48.670;6.184;2023-05-14T08:14:55;99001.16;;;17.01;100.00
50123;BME280;36021;48.670;6.184;2023-05-14T08:17:20;98998.97;;;17.07;100.00
50123;BME280;36021;48.670;6.184;2023-05-14T08:19:46;99002.78;;;17.23;100.00
50123;BME280;36021;48.670;6.184;2023-05-14T08:22:12;98997.75;;;17.37;100.00
50123;BME280;36021;48.670;6.184;2023-05-14T08:24:38;99001.56;;;17.53;100.00
50123;BME280;36021;48.670;6.184;2023-05-14T08:27:03;99002.78;;;17.64;100.00
50123;BME280;36021;48.670;6.184;2023-05-14T08:29:30;98993.31;;;17.78;100.00
50123;BME280;36021;48.670;6.184;2023-05-14T08:31:56;98991.94;;;17.84;100.00
50123;BME280;36021;48.670;6.184;2023-05-14T08:34:23;98988.59;;;17.90;100.00
50123;BME280;36021;48.670;6.184;2023-05-14T08:36:49;98985.22;;;17.85;100.00
50123;BME280;36021;48.670;6.184;2023-05-14T08:39:15;98986.38;;;17.84;100.00
50123;BME280;36021;48.670;6.184;2023-05-14T08:41:40;98991.31;;;17.99;100.00
50123;BME280;36021;48.670;6.184;2023-05-14T08:44:14;98992.25;;;18.03;100.00
50123;BME280;36021;48.670;6.184;2023-05-14T08:46:40;98986.44;;;18.08;100.00
50123;BME280;36021;48.670;6.184;2023-05-14T08:49:37;98996.00;;;18.19;100.00
50123;BME280;36021;48.670;6.184;2023-05-14T08:52:05;98988.59;;;18.35;100.00
50123;BME280;36021;48.670;6.184;2023-05-14T08:54:31;98990.69;;;18.38;100.00
50123;BME280;36021;48.670;6.184;2023-05-14T08:56:58;98992.22;;;18.48;100.00
50123;BME280;36021;48.670;6.184;2023-05-14T08:59:24;98985.81;;;18.47;100.00
50123;BME280;36021;48.670;6.184;2023-05-14T09:01:53;98987.19;;;18.41;100.00
50123;BME280;36021;48.670;6.184;2023-05-14T09:04:22;98983.63;;;18.53;100.00
50123;BME280;36021;48.670;6.184;2023-05-14T09:06:51;98976.53;;;18.55;100.00
50123;BME280;36021;48.670;6.184;2023-05-14T09:09:22;98981.19;;;18.76;100.00
50123;BME280;36021;48.670;6.184;2023-05-14T09:11:49;98969.66;;;18.89;100.00
50123;BME280;36021;48.670;6.184;2023-05-14T09:14:18;98971.38;;;19.06;100.00
50123;BME280;36021;48.670;6.184;2023-05-14T09:16:44;98969.03;;;19.20;100.00
50123;BME280;36021;48.670;6.184;2023-05-14T09:19:11;98968.53;;;19.30;100.00
50123;BME280;36021;48.670;6.184;2023-05-14T09:21:37;98963.59;;;19.51;100.00
50123;BME280;36021;48.670;6.184;2023-05-14T09:24:05;98956.78;;;19.64;100.00
50123;BME280;36021;48.670;6.184;2023-05-14T09:26:34;98959.88;;;19.75;100.00
50123;BME280;36021;48.670;6.184;2023-05-14T09:29:01;98949.63;;;19.79;100.00
50123;BME280;36021;48.670;6.184;2023-05-14T09:31:31;98953.16;;;19.92;100.00
50123;BME280;36021;48.670;6.184;2023-05-14T09:33:58;98949.38;;;20.00;100.00
50123;BME280;36021;48.670;6.184;2023-05-14T09:36:25;98957.84;;;20.03;100.00
50123;BME280;36021;48.670;6.184;2023-05-14T09:38:57;98955.88;;;20.04;100.00
50123;BME280;36021;48.670;6.184;2023-05-14T09:41:23;98950.28;;;20.04;100.00
50123;BME280;36021;48.670;6.184;2023-05-14T09:43:52;98948.06;;;20.25;100.00
50123;BME280;36021;48.670;6.184;2023-05-14T09:46:18;98955.94;;;20.51;100.00
50123;BME280;36021;48.670;6.184;2023-05-14T09:48:44;98951.22;;;20.70;100.00
50123;BME280;36021;48.670;6.184;2023-05-14T09:51:12;98949.28;;;20.90;100.00
50123;BME280;36021;48.670;6.184;2023-05-14T09:53:38;98935.72;;;20.92;100.00
50123;BME280;36021;48.670;6.184;2023-05-14T09:56:05;98945.44;;;21.14;100.00
50123;BME280;36021;48.670;6.184;2023-05-14T09:58:31;98940.09;;;21.09;100.00
50123;BME280;36021;48.670;6.184;2023-05-14T10:00:57;98936.44;;;21.24;100.00
50123;BME280;36021;48.670;6.184;2023-05-14T10:03:24;98935.72;;;21.27;100.00
50123;BME280;36021;48.670;6.184;2023-05-14T10:05:51;98935.78;;;21.11;100.00
50123;BME280;36021;48.670;6.184;2023-05-14T10:08:21;98936.19;;;21.29;100.00
50123;BME280;36021;48.670;6.184;2023-05-14T10:10:50;98931.91;;;21.35;100.00
50123;BME280;36021;48.670;6.184;2023-05-14T10:13:23;98932.56;;;21.48;100.00
50123;BME280;36021;48.670;6.184;2023-05-14T10:16:13;98931.91;;;21.35;100.00
50123;BME280;36021;48.670;6.184;2023-05-14T10:18:42;98935.44;;;21.32;100.00
50123;BME280;36021;48.670;6.184;2023-05-14T10:21:13;98941.50;;;20.99;100.00
50123;BME280;36021;48.670;6.184;2023-05-14T10:23:39;98941.28;;;20.73;100.00
50123;BME280;36021;48.670;6.184;2023-05-14T10:26:07;98938.25;;;20.82;100.00
50123;BME280;36021;48.670;6.184;2023-05-14T10:28:33;98932.34;;;20.67;100.00
50123;BME280;36021;48.670;6.184;2023-05-14T10:30:59;98935.41;;;20.62;100.00
50123;BME280;36021;48.670;6.184;2023-05-14T10:33:25;98932.34;;;20.67;100.00
50123;BME280;36021;48.670;6.184;2023-05-14T10:38:21;98920.94;;;21.11;100.00
50123;BME280;36021;48.670;6.184;2023-05-14T10:40:47;98921.31;;;21.09;100.00
50123;BME280;36021;48.670;6.184;2023-05-14T10:43:14;98911.53;;;21.38;100.00
50123;BME280;36021;48.670;6.184;2023-05-14T10:45:42;98907.63;;;21.43;100.00
50123;BME280;36021;48.670;6.184;2023-05-14T10:48:09;98906.66;;;21.54;100.00
50123;BME280;36021;48.670;6.184;2023-05-14T10:50:36;98907.06;;;21.75;100.00
50123;BME280;36021;48.670;6.184;2023-05-14T10:53:02;98910.66;;;21.76;100.00
50123;BME280;36021;48.670;6.184;2023-05-14T10:55:28;98906.63;;;21.73;100.00
50123;BME280;36021;48.670;6.184;2023-05-14T10:57:57;98902.03;;;21.85;100.00
50123;BME280;36021;48.670;6.184;2023-05-14T11:00:25;98901.44;;;21.95;100.00
50123;BME280;36021;48.670;6.184;2023-05-14T11:02:54;98893.38;;;21.93;100.00
50123;BME280;36021;48.670;6.184;2023-05-14T11:05:21;98888.34;;;22.25;100.00
50123;BME280;36021;48.670;6.184;2023-05-14T11:07:50;98886.97;;;22.38;100.00
50123;BME280;36021;48.670;6.184;2023-05-14T11:10:18;98894.03;;;22.55;100.00
50123;BME280;36021;48.670;6.184;2023-05-14T11:12:45;98898.19;;;22.64;100.00
50123;BME280;36021;48.670;6.184;2023-05-14T11:15:13;98899.72;;;22.58;99.58
50123;BME280;36021;48.670;6.184;2023-05-14T11:17:40;98900.13;;;22.34;99.83
50123;BME280;36021;48.670;6.184;2023-05-14T11:20:07;98889.56;;;22.50;100.00
50123;BME280;36021;48.670;6.184;2023-05-14T11:22:34;98879.59;;;22.79;100.00
50123;BME280;36021;48.670;6.184;2023-05-14T11:25:00;98880.06;;;22.84;100.00
50123;BME280;36021;48.670;6.184;2023-05-14T11:27:26;98885.06;;;22.68;92.87
50123;BME280;36021;48.670;6.184;2023-05-14T11:29:53;98871.31;;;22.63;89.42
50123;BME280;36021;48.670;6.184;2023-05-14T11:32:21;98873.28;;;22.86;94.31
50123;BME280;36021;48.670;6.184;2023-05-14T11:34:46;98867.66;;;22.86;94.82
50123;BME280;36021;48.670;6.184;2023-05-14T11:37:14;98864.38;;;22.80;97.70
50123;BME280;36021;48.670;6.184;2023-05-14T11:39:52;98862.38;;;22.80;99.76
50123;BME280;36021;48.670;6.184;2023-05-14T11:42:18;98871.41;;;22.67;93.55
50123;BME280;36021;48.670;6.184;2023-05-14T11:44:46;98864.59;;;22.98;93.59
50123;BME280;36021;48.670;6.184;2023-05-14T11:47:14;98859.41;;;23.29;89.07
50123;BME280;36021;48.670;6.184;2023-05-14T11:49:42;98858.44;;;23.18;94.70
50123;BME280;36021;48.670;6.184;2023-05-14T11:52:10;98858.16;;;22.97;93.81
50123;BME280;36021;48.670;6.184;2023-05-14T11:54:37;98843.31;;;22.97;95.44
50123;BME280;36021;48.670;6.184;2023-05-14T11:57:09;98840.72;;;23.14;92.44
50123;BME280;36021;48.670;6.184;2023-05-14T11:59:36;98844.69;;;23.10;92.24
50123;BME280;36021;48.670;6.184;2023-05-14T12:02:02;98852.13;;;22.95;84.54
50123;BME280;36021;48.670;6.184;2023-05-14T12:04:29;98838.72;;;22.85;89.76
50123;BME280;36021;48.670;6.184;2023-05-14T12:06:58;98841.34;;;23.01;92.90
50123;BME280;36021;48.670;6.184;2023-05-14T12:09:24;98833.09;;;23.15;84.83
50123;BME280;36021;48.670;6.184;2023-05-14T12:11:52;98828.59;;;23.40;84.32
50123;BME280;36021;48.670;6.184;2023-05-14T12:14:20;98829.16;;;23.56;92.19
50123;BME280;36021;48.670;6.184;2023-05-14T12:16:48;98825.66;;;23.66;82.03
50123;BME280;36021;48.670;6.184;2023-05-14T12:19:15;98823.44;;;23.86;92.81
50123;BME280;36021;48.670;6.184;2023-05-14T12:21:42;98820.06;;;24.10;87.83
50123;BME280;36021;48.670;6.184;2023-05-14T12:24:10;98823.22;;;24.05;81.36
50123;BME280;36021;48.670;6.184;2023-05-14T12:26:37;98822.47;;;24.08;71.61
50123;BME280;36021;48.670;6.184;2023-05-14T12:29:04;98815.88;;;23.94;72.25
50123;BME280;36021;48.670;6.184;2023-05-14T12:31:35;98820.59;;;23.82;75.13
50123;BME280;36021;48.670;6.184;2023-05-14T12:34:02;98818.31;;;23.95;72.11
50123;BME280;36021;48.670;6.184;2023-05-14T12:36:30;98816.72;;;23.98;67.36
50123;BME280;36021;48.670;6.184;2023-05-14T12:39:00;98820.75;;;24.00;64.94
50123;BME280;36021;48.670;6.184;2023-05-14T12:41:27;98816.59;;;23.83;74.37
50123;BME280;36021;48.670;6.184;2023-05-14T12:43:53;98806.41;;;24.12;80.94
50123;BME280;36021;48.670;6.184;2023-05-14T12:46:19;98807.63;;;23.71;82.74
50123;BME280;36021;48.670;6.184;2023-05-14T12:48:46;98808.69;;;23.22;81.74
50123;BME280;36021;48.670;6.184;2023-05-14T12:51:11;98803.84;;;23.56;80.88
50123;BME280;36021;48.670;6.184;2023-05-14T12:53:37;98805.47;;;23.24;79.46
50123;BME280;36021;48.670;6.184;2023-05-14T12:56:03;98797.81;;;23.21;78.59
50123;BME280;36021;48.670;6.184;2023-05-14T12:58:29;98792.53;;;23.16;81.49
50123;BME280;36021;48.670;6.184;2023-05-14T13:00:56;98794.13;;;23.13;86.44
50123;BME280;36021;48.670;6.184;2023-05-14T13:03:21;98783.94;;;24.19;75.46